createdAt,value
2022-10-25T00:01:20.829Z,97117.56
2022-10-25T00:03:49.418Z,97113.06
2022-10-25T00:06:19.046Z,97121.09
2022-10-25T00:08:49.317Z,97116.91
2022-10-25T00:11:21.067Z,97126.69
2022-10-25T00:13:51.076Z,97129.38
2022-10-25T00:16:25.426Z,97126.31
2022-10-25T00:18:54.336Z,97120.16
2022-10-25T00:21:23.845Z,97116.72
2022-10-25T00:23:54.756Z,97118.13
2022-10-25T00:26:23.420Z,97122.41
2022-10-25T00:28:55.864Z,97127.22
2022-10-25T00:31:25.509Z,97121.97
2022-10-25T00:33:54.250Z,97118.41
2022-10-25T00:36:24.416Z,97119.16
2022-10-25T00:38:56.900Z,97120.91
2022-10-25T00:41:28.101Z,97124.66
2022-10-25T00:44:19.028Z,97126.88
2022-10-25T00:46:47.999Z,97136.22
2022-10-25T00:49:22.475Z,97138.38
2022-10-25T00:51:55.991Z,97135.59
2022-10-25T00:54:31.551Z,97133.72
2022-10-25T00:57:04.805Z,97142.59
2022-10-25T00:59:33.768Z,97136.88
2022-10-25T01:02:02.780Z,97138.59
2022-10-25T01:04:34.614Z,97143.44
2022-10-25T01:07:03.852Z,97136.50
2022-10-25T01:09:37.754Z,97137.63
2022-10-25T01:12:06.698Z,97136.25
2022-10-25T01:14:45.289Z,97136.34
2022-10-25T01:17:25.810Z,97143.22
2022-10-25T01:20:39.451Z,97143.69
2022-10-25T01:23:28.538Z,97144.84
2022-10-25T01:26:54.421Z,97145.31
2022-10-25T01:29:55.056Z,97135.78
2022-10-25T01:32:31.063Z,97133.66
2022-10-25T01:35:10.346Z,97134.19
2022-10-25T01:37:53.120Z,97132.78
2022-10-25T01:40:31.616Z,97138.34
2022-10-25T01:43:09.068Z,97129.16
2022-10-25T01:45:42.657Z,97132.81
2022-10-25T01:48:19.662Z,97132.00
2022-10-25T01:50:51.223Z,97133.13
2022-10-25T01:53:19.922Z,97135.94
2022-10-25T01:55:55.335Z,97133.69
2022-10-25T01:58:36.293Z,97127.66
2022-10-25T02:01:16.348Z,97130.78
2022-10-25T02:03:57.471Z,97136.72
2022-10-25T02:06:40.111Z,97134.00
2022-10-25T02:09:20.534Z,97133.63
2022-10-25T02:11:51.610Z,97129.28
2022-10-25T02:14:31.788Z,97127.16
2022-10-25T02:17:08.560Z,97127.06
2022-10-25T02:19:43.578Z,97122.44
2022-10-25T02:22:14.553Z,97117.28
2022-10-25T02:24:47.014Z,97122.22
2022-10-25T02:27:17.188Z,97120.00
2022-10-25T02:29:47.230Z,97122.72
2022-10-25T02:32:16.230Z,97122.63
2022-10-25T02:34:49.683Z,97123.03
2022-10-25T02:37:18.644Z,97113.88
2022-10-25T02:39:47.569Z,97122.03
2022-10-25T02:42:16.188Z,97118.63
2022-10-25T02:44:44.898Z,97123.66
2022-10-25T02:47:13.479Z,97128.88
2022-10-25T02:49:42.090Z,97134.84
2022-10-25T02:52:11.667Z,97140.69
2022-10-25T02:54:39.923Z,97144.13
2022-10-25T02:57:08.519Z,97141.28
2022-10-25T02:59:37.174Z,97148.91
2022-10-25T03:02:05.817Z,97152.66
2022-10-25T03:04:34.417Z,97152.22
2022-10-25T03:07:03.041Z,97155.44
2022-10-25T03:09:33.045Z,97147.97
2022-10-25T03:12:01.664Z,97150.56
2022-10-25T03:14:30.285Z,97154.38
2022-10-25T03:16:58.903Z,97154.97
2022-10-25T03:19:27.520Z,97149.53
2022-10-25T03:21:56.140Z,97149.72
2022-10-25T03:24:24.857Z,97152.03
2022-10-25T03:26:54.838Z,97155.56
2022-10-25T03:29:23.504Z,97147.00
2022-10-25T03:31:52.246Z,97141.06
2022-10-25T03:34:20.556Z,97149.88
2022-10-25T03:36:49.194Z,97155.25
2022-10-25T03:39:17.786Z,97155.19
2022-10-25T03:41:46.396Z,97156.53
2022-10-25T03:44:16.550Z,97153.50
2022-10-25T03:46:45.151Z,97161.66
2022-10-25T03:49:13.792Z,97167.72
2022-10-25T03:51:42.449Z,97163.47
2022-10-25T03:54:10.744Z,97166.00
2022-10-25T03:56:39.038Z,97178.28
2022-10-25T03:59:07.788Z,97187.63
2022-10-25T04:01:37.860Z,97181.00
2022-10-25T04:04:06.690Z,97182.00
2022-10-25T04:06:35.332Z,97181.09
2022-10-25T04:09:03.985Z,97186.34
2022-10-25T04:11:32.631Z,97179.06
2022-10-25T04:14:01.286Z,97177.25
2022-10-25T04:16:30.089Z,97175.16
2022-10-25T04:19:00.061Z,97176.38
2022-10-25T04:21:28.803Z,97178.47
2022-10-25T04:23:59.368Z,97176.59
2022-10-25T04:26:30.790Z,97177.88
2022-10-25T04:28:59.447Z,97177.38
2022-10-25T04:31:27.944Z,97176.06
2022-10-25T04:33:58.882Z,97176.44
2022-10-25T04:36:30.747Z,97182.72
2022-10-25T04:38:59.799Z,97190.47
2022-10-25T04:41:28.533Z,97175.56
2022-10-25T04:43:57.151Z,97175.13
2022-10-25T04:46:25.861Z,97180.88
2022-10-25T04:48:54.494Z,97190.34
2022-10-25T04:51:24.529Z,97190.56
2022-10-25T04:53:54.924Z,97192.38
2022-10-25T04:56:23.923Z,97192.19
2022-10-25T04:58:52.204Z,97193.78
2022-10-25T05:01:20.909Z,97189.13
2022-10-25T05:03:50.020Z,97190.75
2022-10-25T05:06:26.095Z,97191.13
2022-10-25T05:08:56.367Z,97185.78
2022-10-25T05:11:26.796Z,97191.91
2022-10-25T05:13:55.573Z,97201.34
2022-10-25T05:16:26.083Z,97203.91
2022-10-25T05:18:56.234Z,97202.06
2022-10-25T05:21:28.852Z,97204.00
2022-10-25T05:24:01.476Z,97207.97
2022-10-25T05:26:33.191Z,97218.53
2022-10-25T05:29:03.619Z,97222.56
2022-10-25T05:31:33.429Z,97222.94
2022-10-25T05:34:02.602Z,97225.66
2022-10-25T05:36:33.421Z,97223.31
2022-10-25T05:39:02.362Z,97233.69
2022-10-25T05:41:34.553Z,97229.34
2022-10-25T05:44:06.282Z,97227.91
2022-10-25T05:46:35.089Z,97221.91
2022-10-25T05:49:04.147Z,97218.88
2022-10-25T05:51:36.593Z,97228.09
2022-10-25T05:54:07.538Z,97237.13
2022-10-25T05:56:37.614Z,97240.56
2022-10-25T05:59:08.961Z,97240.84
2022-10-25T06:01:39.871Z,97247.78
2022-10-25T06:04:09.271Z,97247.34
2022-10-25T06:06:40.840Z,97245.44
2022-10-25T06:09:10.605Z,97249.81
2022-10-25T06:11:39.766Z,97252.31
2022-10-25T06:14:10.851Z,97261.78
2022-10-25T06:16:40.066Z,97266.19
2022-10-25T06:19:09.135Z,97260.69
2022-10-25T06:21:39.194Z,97256.94
2022-10-25T06:24:07.957Z,97270.94
2022-10-25T06:26:36.568Z,97262.84
2022-10-25T06:29:06.633Z,97271.97
2022-10-25T06:31:35.423Z,97269.03
2022-10-25T06:34:04.149Z,97279.22
2022-10-25T06:36:33.550Z,97276.16
2022-10-25T06:39:05.656Z,97281.00
2022-10-25T06:41:37.675Z,97287.31
2022-10-25T06:44:07.685Z,97283.44
2022-10-25T06:49:27.948Z,97286.03
2022-10-25T06:51:56.747Z,97275.91
2022-10-25T06:54:26.913Z,97288.91
2022-10-25T06:56:55.314Z,97274.69
2022-10-25T06:59:23.920Z,97283.94
2022-10-25T07:01:52.686Z,97277.72
2022-10-25T07:04:21.450Z,97276.75
2022-10-25T07:06:53.009Z,97285.31
2022-10-25T07:09:26.541Z,97286.53
2022-10-25T07:11:55.164Z,97287.41
2022-10-25T07:14:23.763Z,97286.69
2022-10-25T07:16:52.357Z,97298.63
2022-10-25T07:19:20.885Z,97294.22
2022-10-25T07:21:49.603Z,97294.34
2022-10-25T07:24:18.303Z,97298.25
2022-10-25T07:26:48.317Z,97296.19
2022-10-25T07:29:16.926Z,97296.00
2022-10-25T07:31:45.650Z,97302.47
2022-10-25T07:34:16.827Z,97295.19
2022-10-25T07:36:45.165Z,97300.13
2022-10-25T07:39:13.766Z,97296.47
2022-10-25T07:41:42.379Z,97305.25
2022-10-25T07:44:16.742Z,97307.72
2022-10-25T07:46:47.043Z,97306.63
2022-10-25T07:49:15.664Z,97311.66
2022-10-25T07:51:44.012Z,97317.06
2022-10-25T07:54:12.301Z,97326.34
2022-10-25T07:56:40.916Z,97308.72
2022-10-25T07:59:10.877Z,97316.66
2022-10-25T08:01:39.623Z,97316.25
2022-10-25T08:04:08.321Z,97317.38
2022-10-25T08:06:36.637Z,97317.00
2022-10-25T08:09:14.361Z,97313.16
2022-10-25T08:11:49.076Z,97312.25
2022-10-25T08:14:19.139Z,97318.19
2022-10-25T08:16:47.496Z,97319.50
2022-10-25T08:19:16.072Z,97318.56
2022-10-25T08:21:44.636Z,97328.81
2022-10-25T08:24:13.278Z,97324.25
2022-10-25T08:26:41.999Z,97324.72
2022-10-25T08:29:10.510Z,97326.41
2022-10-25T08:31:40.332Z,97326.19
2022-10-25T08:34:08.838Z,97325.81
2022-10-25T08:36:37.479Z,97328.41
2022-10-25T08:39:06.147Z,97339.31
2022-10-25T08:41:48.105Z,97336.06
2022-10-25T08:44:35.637Z,97333.28
2022-10-25T08:47:14.433Z,97330.69
2022-10-25T08:49:55.259Z,97320.97
2022-10-25T08:52:31.188Z,97331.03
2022-10-25T08:55:05.553Z,97324.47
2022-10-25T08:57:39.174Z,97324.81
2022-10-25T09:00:17.573Z,97324.91
2022-10-25T09:02:53.524Z,97330.56
2022-10-25T09:05:39.230Z,97329.41
2022-10-25T09:08:38.857Z,97334.41
2022-10-25T09:11:28.273Z,97326.75
2022-10-25T09:14:04.987Z,97333.00
2022-10-25T09:16:40.086Z,97325.34
2022-10-25T09:19:19.114Z,97327.34
2022-10-25T09:21:53.731Z,97326.41
2022-10-25T09:24:27.220Z,97335.47
2022-10-25T09:27:07.105Z,97332.16
2022-10-25T09:29:39.351Z,97324.25
2022-10-25T09:32:17.180Z,97326.09
2022-10-25T09:34:47.170Z,97329.88
2022-10-25T09:37:24.812Z,97325.63
2022-10-25T09:39:59.499Z,97324.28
2022-10-25T09:42:34.254Z,97320.13
2022-10-25T09:45:16.503Z,97328.97
2022-10-25T09:47:51.722Z,97321.94
2022-10-25T09:50:29.007Z,97325.25
2022-10-25T09:53:11.094Z,97320.09
2022-10-25T09:55:50.445Z,97338.00
2022-10-25T09:58:23.122Z,97335.00
2022-10-25T10:00:53.507Z,97335.00
2022-10-25T10:03:23.849Z,97330.50
2022-10-25T10:05:56.702Z,97342.81
2022-10-25T10:08:25.630Z,97342.25
2022-10-25T10:10:56.124Z,97342.66
2022-10-25T10:13:34.989Z,97341.72
2022-10-25T10:16:06.414Z,97342.31
2022-10-25T10:18:35.856Z,97338.00
2022-10-25T10:21:15.156Z,97336.41
2022-10-25T10:23:53.250Z,97339.66
2022-10-25T10:26:29.368Z,97331.84
2022-10-25T10:29:08.907Z,97334.56
2022-10-25T10:31:39.928Z,97339.81
2022-10-25T10:34:24.965Z,97335.25
2022-10-25T10:37:08.272Z,97329.38
2022-10-25T10:39:36.925Z,97328.25
2022-10-25T10:42:17.454Z,97321.03
2022-10-25T10:45:13.437Z,97330.66
2022-10-25T10:47:46.285Z,97316.19
2022-10-25T10:50:25.740Z,97312.47
2022-10-25T10:53:00.966Z,97312.53
2022-10-25T10:55:32.309Z,97307.25
2022-10-25T10:58:05.427Z,97301.19
2022-10-25T11:00:35.931Z,97308.03
2022-10-25T11:03:04.628Z,97309.31
2022-10-25T11:05:35.415Z,97300.00
2022-10-25T11:08:20.459Z,97301.16
2022-10-25T11:10:49.316Z,97306.38
2022-10-25T11:13:20.013Z,97305.72
2022-10-25T11:16:13.368Z,97306.16
2022-10-25T11:18:52.025Z,97297.81
2022-10-25T11:21:44.891Z,97293.47
2022-10-25T11:24:26.529Z,97295.94
2022-10-25T11:27:02.522Z,97291.06
2022-10-25T11:29:51.892Z,97292.50
2022-10-25T11:32:56.255Z,97281.84
2022-10-25T11:35:53.578Z,97280.97
2022-10-25T11:38:39.243Z,97275.69
2022-10-25T11:41:27.660Z,97277.03
2022-10-25T11:44:16.000Z,97273.53
2022-10-25T11:46:59.370Z,97271.94
2022-10-25T11:49:56.824Z,97276.00
2022-10-25T11:53:04.331Z,97280.81
2022-10-25T11:55:41.324Z,97272.34
2022-10-25T11:58:37.586Z,97269.44
2022-10-25T12:01:21.456Z,97276.94
2022-10-25T12:04:29.823Z,97275.63
2022-10-25T12:07:05.606Z,97272.91
2022-10-25T12:09:50.821Z,97273.53
2022-10-25T12:12:24.928Z,97274.00
2022-10-25T12:15:00.713Z,97270.56
2022-10-25T12:17:33.533Z,97271.91
2022-10-25T12:20:06.476Z,97271.53
2022-10-25T12:22:41.175Z,97271.00
2022-10-25T12:25:19.332Z,97266.31
2022-10-25T12:27:56.625Z,97259.81
2022-10-25T12:30:27.443Z,97257.13
2022-10-25T12:33:01.149Z,97260.69
2022-10-25T12:35:32.351Z,97262.16
2022-10-25T12:38:08.032Z,97253.47
2022-10-25T12:40:41.944Z,97253.84
2022-10-25T12:43:21.200Z,97247.50
2022-10-25T12:46:23.081Z,97252.81
2022-10-25T12:49:19.825Z,97245.63
2022-10-25T12:52:09.398Z,97249.53
2022-10-25T12:55:24.425Z,97242.06
2022-10-25T12:58:24.890Z,97245.84
2022-10-25T13:01:15.414Z,97246.44
2022-10-25T13:04:10.283Z,97238.81
2022-10-25T13:06:40.908Z,97237.63
2022-10-25T13:09:11.791Z,97255.47
2022-10-25T13:11:44.264Z,97245.59
2022-10-25T13:14:27.502Z,97242.44
2022-10-25T13:17:43.719Z,97248.53
2022-10-25T13:20:51.536Z,97253.53
2022-10-25T13:24:00.449Z,97243.66
2022-10-25T13:27:19.855Z,97235.25
2022-10-25T13:30:02.431Z,97240.66
2022-10-25T13:32:33.292Z,97242.72
2022-10-25T13:35:03.818Z,97245.25
2022-10-25T13:37:43.785Z,97240.88
2022-10-25T13:40:28.745Z,97241.91
2022-10-25T13:43:05.395Z,97239.88
2022-10-25T13:45:41.730Z,97246.25
2022-10-25T13:48:28.437Z,97238.00
2022-10-25T13:51:00.910Z,97232.47
2022-10-25T13:53:39.290Z,97236.53
2022-10-25T13:56:10.109Z,97233.56
2022-10-25T13:58:52.733Z,97232.75
2022-10-25T14:01:57.269Z,97235.59
2022-10-25T14:04:38.038Z,97235.56
2022-10-25T14:07:45.565Z,97226.84
2022-10-25T14:10:29.064Z,97229.34
2022-10-25T14:13:15.483Z,97229.31
2022-10-25T14:15:55.753Z,97228.44
2022-10-25T14:18:26.527Z,97224.16
2022-10-25T14:20:59.700Z,97222.94
2022-10-25T14:23:33.371Z,97213.75
2022-10-25T14:26:06.155Z,97222.84
2022-10-25T14:28:35.773Z,97218.16
2022-10-25T14:31:07.488Z,97214.59
2022-10-25T14:33:42.979Z,97211.50
2022-10-25T14:36:26.339Z,97212.44
2022-10-25T14:38:57.734Z,97217.06
2022-10-25T14:41:28.887Z,97208.94
2022-10-25T14:43:58.088Z,97215.84
2022-10-25T14:46:30.170Z,97213.44
2022-10-25T14:49:01.418Z,97218.84
2022-10-25T14:51:33.660Z,97214.59
2022-10-25T14:54:05.648Z,97205.97
2022-10-25T14:56:39.353Z,97205.91
2022-10-25T14:59:21.110Z,97205.28
2022-10-25T15:01:56.059Z,97210.75
2022-10-25T15:04:33.198Z,97204.91
2022-10-25T15:07:02.725Z,97208.06
2022-10-25T15:09:49.007Z,97215.38
2022-10-25T15:12:22.174Z,97207.94
2022-10-25T15:14:50.561Z,97207.72
2022-10-25T15:17:27.682Z,97209.84
2022-10-25T15:20:27.708Z,97206.78
2022-10-25T15:23:05.423Z,97202.56
2022-10-25T15:25:38.837Z,97202.00
2022-10-25T15:28:13.255Z,97202.59
2022-10-25T15:30:46.146Z,97208.06
2022-10-25T15:33:19.097Z,97202.78
2022-10-25T15:35:51.886Z,97200.72
2022-10-25T15:38:20.676Z,97207.59
2022-10-25T15:40:50.582Z,97207.38
2022-10-25T15:43:19.178Z,97200.00
2022-10-25T15:45:47.913Z,97205.00
2022-10-25T15:48:21.191Z,97192.84
2022-10-25T15:50:53.028Z,97203.06
2022-10-25T15:53:22.113Z,97195.28
2022-10-25T15:55:51.880Z,97205.00
2022-10-25T15:58:20.218Z,97202.72
2022-10-25T16:00:51.935Z,97204.97
2022-10-25T16:03:24.845Z,97204.47
2022-10-25T16:05:54.142Z,97196.72
2022-10-25T16:08:22.449Z,97199.78
2022-10-25T16:10:50.937Z,97198.00
2022-10-25T16:13:30.751Z,97201.28
2022-10-25T16:16:04.363Z,97201.41
2022-10-25T16:18:34.478Z,97202.09
2022-10-25T16:21:03.104Z,97203.28
2022-10-25T16:23:31.939Z,97208.78
2022-10-25T16:26:00.582Z,97210.09
2022-10-25T16:28:29.196Z,97210.41
2022-10-25T16:30:57.861Z,97202.78
2022-10-25T16:33:26.471Z,97205.91
2022-10-25T16:35:56.422Z,97203.34
2022-10-25T16:38:25.181Z,97201.53
2022-10-25T16:40:53.793Z,97199.59
2022-10-25T16:43:22.355Z,97204.09
2022-10-25T16:45:50.970Z,97210.34
2022-10-25T16:48:19.574Z,97209.69
2022-10-25T16:50:48.333Z,97215.69
2022-10-25T16:53:18.019Z,97219.94
2022-10-25T16:55:46.623Z,97213.06
2022-10-25T16:58:15.225Z,97217.28
2022-10-25T17:00:44.040Z,97215.03
2022-10-25T17:03:12.476Z,97206.41
2022-10-25T17:05:41.184Z,97205.41
2022-10-25T17:08:09.752Z,97208.16
2022-10-25T17:10:43.678Z,97208.63
2022-10-25T17:13:16.099Z,97212.81
2022-10-25T17:15:44.898Z,97205.72
2022-10-25T17:18:16.719Z,97207.16
2022-10-25T17:20:45.322Z,97212.19
2022-10-25T17:23:13.936Z,97210.44
2022-10-25T17:25:43.881Z,97207.66
2022-10-25T17:28:12.677Z,97214.59
2022-10-25T17:30:43.317Z,97214.66
2022-10-25T17:33:11.593Z,97221.34
2022-10-25T17:35:42.997Z,97218.63
2022-10-25T17:38:11.663Z,97214.47
2022-10-25T17:40:40.571Z,97217.66
2022-10-25T17:43:11.766Z,97206.72
2022-10-25T17:45:40.409Z,97209.31
2022-10-25T17:48:08.853Z,97210.09
2022-10-25T17:50:40.997Z,97210.41
2022-10-25T17:53:10.625Z,97218.63
2022-10-25T17:55:41.132Z,97216.84
2022-10-25T17:58:11.025Z,97213.47
2022-10-25T18:00:39.655Z,97219.88
2022-10-25T18:03:07.924Z,97211.84
2022-10-25T18:05:38.968Z,97216.66
2022-10-25T18:08:08.189Z,97212.16
2022-10-25T18:10:36.999Z,97213.47
2022-10-25T18:13:05.591Z,97206.88
2022-10-25T18:15:35.810Z,97211.22
2022-10-25T18:18:04.582Z,97209.94
2022-10-25T18:20:33.376Z,97208.00
2022-10-25T18:23:01.960Z,97206.56
2022-10-25T18:25:30.616Z,97203.19
2022-10-25T18:27:59.320Z,97205.28
2022-10-25T18:30:27.916Z,97207.66
2022-10-25T18:32:57.585Z,97210.09
2022-10-25T18:35:26.307Z,97203.63
2022-10-25T18:37:54.597Z,97203.94
2022-10-25T18:40:23.236Z,97206.06
2022-10-25T18:42:51.799Z,97198.16
2022-10-25T18:45:20.159Z,97203.94
2022-10-25T18:47:53.216Z,97205.72
2022-10-25T18:50:22.957Z,97204.28
2022-10-25T18:52:51.579Z,97204.13
2022-10-25T18:55:21.613Z,97193.81
2022-10-25T18:57:50.557Z,97195.91
2022-10-25T19:00:19.519Z,97197.69
2022-10-25T19:02:52.583Z,97197.66
2022-10-25T19:05:22.995Z,97196.69
2022-10-25T19:07:51.560Z,97192.50
2022-10-25T19:10:20.147Z,97199.28
2022-10-25T19:12:48.734Z,97188.84
2022-10-25T19:15:17.617Z,97186.59
2022-10-25T19:17:46.473Z,97177.41
2022-10-25T19:20:15.297Z,97182.72
2022-10-25T19:22:44.906Z,97187.19
2022-10-25T19:25:13.831Z,97173.53
2022-10-25T19:27:42.852Z,97184.09
2022-10-25T19:30:12.618Z,97191.09
2022-10-25T19:32:41.570Z,97188.13
2022-10-25T19:35:10.751Z,97185.31
2022-10-25T19:37:40.314Z,97186.59
2022-10-25T19:40:12.155Z,97177.06
2022-10-25T19:42:40.934Z,97166.97
2022-10-25T19:45:09.676Z,97162.53
2022-10-25T19:47:40.336Z,97159.53
2022-10-25T19:50:09.681Z,97165.66
2022-10-25T19:52:39.072Z,97165.66
2022-10-25T19:55:09.765Z,97161.94
2022-10-25T19:57:38.398Z,97165.56
2022-10-25T20:00:10.009Z,97160.06
2022-10-25T20:02:41.446Z,97163.84
2022-10-25T20:07:40.180Z,97158.13
2022-10-25T20:10:10.552Z,97158.88
2022-10-25T20:12:38.902Z,97161.28
2022-10-25T20:15:08.669Z,97164.50
2022-10-25T20:17:37.141Z,97165.25
2022-10-25T20:20:06.532Z,97155.03
2022-10-25T20:22:37.954Z,97155.38
2022-10-25T20:25:07.776Z,97157.94
2022-10-25T20:27:37.493Z,97155.38
2022-10-25T20:30:07.001Z,97169.03
2022-10-25T20:32:35.310Z,97165.38
2022-10-25T20:37:38.374Z,97179.34
2022-10-25T20:40:08.035Z,97179.94
2022-10-25T20:42:37.997Z,97173.78
2022-10-25T20:45:07.256Z,97172.09
2022-10-25T20:47:35.996Z,97179.28
2022-10-25T20:50:04.775Z,97180.34
2022-10-25T20:52:34.727Z,97175.91
2022-10-25T20:55:03.455Z,97171.22
2022-10-25T20:57:33.641Z,97180.53
2022-10-25T21:00:03.261Z,97178.09
2022-10-25T21:02:31.888Z,97181.63
2022-10-25T21:05:00.534Z,97169.91
2022-10-25T21:07:31.680Z,97169.13
2022-10-25T21:10:00.574Z,97169.31
2022-10-25T21:12:29.161Z,97168.72
2022-10-25T21:14:57.814Z,97164.53
2022-10-25T21:17:27.459Z,97163.13
2022-10-25T21:19:55.733Z,97160.56
2022-10-25T21:22:23.982Z,97156.41
2022-10-25T21:24:52.575Z,97149.88
2022-10-25T21:27:21.347Z,97153.25
2022-10-25T21:29:49.613Z,97150.97
2022-10-25T21:32:18.229Z,97145.69
2022-10-25T21:34:47.848Z,97146.22
2022-10-25T21:37:16.095Z,97146.53
2022-10-25T21:39:45.861Z,97149.91
2022-10-25T21:42:14.169Z,97141.69
2022-10-25T21:44:42.831Z,97139.53
2022-10-25T21:47:11.484Z,97133.59
2022-10-25T21:49:40.068Z,97131.69
2022-10-25T21:52:09.670Z,97127.31
2022-10-25T21:54:38.237Z,97134.34
2022-10-25T21:57:06.820Z,97127.31
2022-10-25T21:59:35.513Z,97132.09
2022-10-25T22:02:04.577Z,97128.94
2022-10-25T22:04:34.119Z,97131.69
2022-10-25T22:07:02.725Z,97131.06
2022-10-25T22:09:32.686Z,97121.25
2022-10-25T22:12:01.009Z,97126.25
2022-10-25T22:14:29.821Z,97121.78
2022-10-25T22:16:58.441Z,97115.69
2022-10-25T22:19:27.185Z,97120.97
2022-10-25T22:21:55.824Z,97125.78
2022-10-25T22:24:24.403Z,97129.13
2022-10-25T22:26:54.855Z,97131.88
2022-10-25T22:29:23.488Z,97127.03
2022-10-25T22:31:52.089Z,97118.22
2022-10-25T22:34:20.741Z,97130.41
2022-10-25T22:36:49.312Z,97119.94
2022-10-25T22:39:17.870Z,97115.63
2022-10-25T22:41:46.309Z,97112.38
2022-10-25T22:44:15.934Z,97117.19
2022-10-25T22:46:44.572Z,97118.03
2022-10-25T22:49:13.250Z,97113.38
2022-10-25T22:51:41.839Z,97114.84
2022-10-25T22:54:10.453Z,97113.38
2022-10-25T22:56:38.725Z,97121.06
2022-10-25T22:59:07.414Z,97111.88
2022-10-25T23:01:38.805Z,97116.56
2022-10-25T23:04:08.778Z,97112.38
2022-10-25T23:06:39.516Z,97119.44
2022-10-25T23:09:10.336Z,97119.13
2022-10-25T23:11:41.539Z,97128.44
2022-10-25T23:14:14.777Z,97132.34
2022-10-25T23:16:47.254Z,97133.63
2022-10-25T23:19:15.888Z,97119.63
2022-10-25T23:21:44.495Z,97126.84
2022-10-25T23:24:13.079Z,97120.88
2022-10-25T23:26:41.738Z,97130.53
2022-10-25T23:29:13.494Z,97126.56
2022-10-25T23:31:42.077Z,97122.44
2022-10-25T23:34:12.642Z,97120.81
2022-10-25T23:36:41.302Z,97113.44
2022-10-25T23:39:10.206Z,97122.28
2022-10-25T23:41:39.204Z,97123.28
2022-10-25T23:44:07.553Z,97124.91
2022-10-25T23:46:36.034Z,97122.50
2022-10-25T23:49:04.414Z,97126.97
2022-10-25T23:51:34.155Z,97138.41
2022-10-25T23:54:02.871Z,97134.38
2022-10-25T23:56:31.500Z,97134.03
2022-10-25T23:59:00.388Z,97123.91
